Time;durP1;ratioP1;P1;durP2;ratioP2;P2;SDS_P1;SDS_P2;PMS_P1;PMS_P2;Temp;Humidity;BMP_temperature;BMP_pressure;BME280_temperature;BME280_humidity;BME280_pressure;Samples;Min_cycle;Max_cycle;Signal;HPM_P1;HPM_P2
2021/12/27 00:00:46;;;;;;;;;;;;;;;7.54;41.44;100145.91;4962878;28;127366;-54
2021/12/27 00:03:12;;;;;;;;;;;;;;;7.55;41.53;100144.88;4962796;28;97750;-55
2021/12/27 00:05:38;;;;;;;;;;;;;;;7.54;41.67;100148.59;4996721;27;98323;-62
2021/12/27 00:08:04;;;;;;;;;;;;;;;7.57;41.49;100149.97;4963987;27;97839;-54
2021/12/27 00:10:30;;;;;;;;;;;;;;;7.57;41.59;100153.44;4962999;28;122100;-55
2021/12/27 00:12:56;;;;;;;;;;;;;;;7.57;41.53;100150.78;4963029;28;115655;-62
2021/12/27 00:15:22;;;;;;;;;;;;;;;7.57;41.46;100149.97;4962916;28;107983;-62
2021/12/27 00:17:48;;;;;;;;;;;;;;;7.57;41.46;100150.78;4942554;28;111217;-62
2021/12/27 00:20:15;;;;;;;;;;;;;;;7.56;41.44;100143.78;4955702;28;128076;-54
2021/12/27 00:22:42;;;;;;;;;;;;;;;7.57;41.53;100147.28;4962584;28;107196;-55
2021/12/27 00:25:08;;;;;;;;;;;;;;;7.57;41.44;100140.03;4942885;28;97755;-62
2021/12/27 00:27:34;;;;;;;;;;;;;;;7.58;41.25;100140.84;4943819;28;97757;-54
2021/12/27 00:30:00;;;;;;;;;;;;;;;7.57;41.35;100140.03;4959906;28;126646;-64
2021/12/27 00:32:26;;;;;;;;;;;;;;;7.57;41.47;100134.69;4962102;28;127238;-55
2021/12/27 00:34:52;;;;;;;;;;;;;;;7.57;41.52;100131.19;4961872;28;124145;-63
2021/12/27 00:37:18;;;;;;;;;;;;;;;7.59;41.46;100131.75;4962344;28;108974;-63
2021/12/27 00:39:44;;;;;;;;;;;;;;;7.59;41.01;100129.88;4965572;28;98209;-62
2021/12/27 00:42:09;;;;;;;;;;;;;;;7.60;41.69;100130.69;4981771;27;122523;-63
2021/12/27 00:44:35;;;;;;;;;;;;;;;7.61;41.61;100126.94;4981873;28;117211;-56
2021/12/27 00:47:01;;;;;;;;;;;;;;;7.60;41.62;100114.59;4982526;27;115704;-63
2021/12/27 00:49:27;;;;;;;;;;;;;;;7.59;41.49;100116.47;4981449;27;111058;-54
2021/12/27 00:51:53;;;;;;;;;;;;;;;7.62;41.21;100123.19;4980963;28;98288;-56
2021/12/27 00:54:19;;;;;;;;;;;;;;;7.62;41.37;100118.66;4981820;27;105206;-62
2021/12/27 00:56:45;;;;;;;;;;;;;;;7.63;41.57;100117.56;4980270;28;118503;-55
2021/12/27 00:59:11;;;;;;;;;;;;;;;7.64;41.54;100113.00;4980949;27;128480;-54
2021/12/27 01:01:37;;;;;;;;;;;;;;;7.64;41.42;100107.66;4980686;27;99259;-63
2021/12/27 01:04:04;;;;;;;;;;;;;;;7.65;41.61;100111.13;4981586;27;98476;-63
2021/12/27 01:06:30;;;;;;;;;;;;;;;7.66;41.11;100110.88;4981202;28;105494;-63
2021/12/27 01:08:56;;;;;;;;;;;;;;;7.66;41.58;100107.38;4982851;27;98365;-63
2021/12/27 01:14:00;;;;;;;;;;;;;;;7.67;41.48;100092.91;4980470;27;112746;-63
2021/12/27 01:16:26;;;;;;;;;;;;;;;7.68;41.50;100102.56;4983529;28;98521;-54
2021/12/27 01:18:56;;;;;;;;;;;;;;;7.67;41.55;100096.41;4981955;27;98586;-63
2021/12/27 01:21:23;;;;;;;;;;;;;;;7.69;41.63;100093.47;4965064;27;99081;-63
2021/12/27 01:23:49;;;;;;;;;;;;;;;7.70;41.53;100087.00;4961582;28;111793;-63
2021/12/27 01:26:15;;;;;;;;;;;;;;;7.69;41.60;100083.53;4970085;28;105335;-55
2021/12/27 01:28:41;;;;;;;;;;;;;;;7.70;41.45;100090.50;4981744;27;98288;-55
2021/12/27 01:31:07;;;;;;;;;;;;;;;7.71;41.49;100089.47;4982412;28;98323;-56
2021/12/27 01:33:33;;;;;;;;;;;;;;;7.72;41.59;100091.06;4981568;27;126417;-62
2021/12/27 01:36:00;;;;;;;;;;;;;;;7.74;41.49;100088.13;4982425;27;97960;-56
2021/12/27 01:38:26;;;;;;;;;;;;;;;7.74;41.48;100091.63;4982047;27;98630;-63
2021/12/27 01:40:53;;;;;;;;;;;;;;;7.75;41.29;100087.88;4981673;27;98766;-57
2021/12/27 01:43:27;;;;;;;;;;;;;;;7.76;41.56;100086.00;4979502;28;98513;-55
2021/12/27 01:46:16;;;;;;;;;;;;;;;7.76;41.43;100080.63;4980406;28;97747;-63
2021/12/27 01:48:48;;;;;;;;;;;;;;;7.78;41.63;100079.31;4967880;28;98754;-55
2021/12/27 01:51:15;;;;;;;;;;;;;;;7.80;41.47;100076.38;4963452;28;98629;-56
2021/12/27 01:53:42;;;;;;;;;;;;;;;7.80;41.79;100085.22;4980224;27;122512;-55
2021/12/27 01:56:09;;;;;;;;;;;;;;;7.81;41.41;100086.03;4981990;27;97618;-55
2021/12/27 01:58:35;;;;;;;;;;;;;;;7.84;41.88;100088.19;4981266;27;98438;-63
2021/12/27 02:01:02;;;;;;;;;;;;;;;7.83;41.48;100084.72;4967153;28;129133;-62
2021/12/27 02:03:29;;;;;;;;;;;;;;;7.84;41.67;100083.63;4966051;27;117474;-55
2021/12/27 02:05:55;;;;;;;;;;;;;;;7.87;41.51;100087.69;4982107;27;97776;-63
2021/12/27 02:08:21;;;;;;;;;;;;;;;7.88;41.71;100075.88;4981777;27;98809;-64
2021/12/27 02:10:49;;;;;;;;;;;;;;;7.88;41.45;100079.38;4978980;28;130645;-63
2021/12/27 02:13:15;;;;;;;;;;;;;;;7.90;41.68;100075.63;4980043;28;100739;-63
2021/12/27 02:15:41;;;;;;;;;;;;;;;7.91;41.56;100074.56;4978206;27;105688;-63
2021/12/27 02:18:10;;;;;;;;;;;;;;;7.92;41.68;100079.66;4959791;28;119625;-63
2021/12/27 02:20:37;;;;;;;;;;;;;;;7.93;41.64;100070.53;4961142;28;98978;-63
2021/12/27 02:23:07;;;;;;;;;;;;;;;7.94;41.61;100066.81;4961119;28;99741;-54
2021/12/27 02:25:33;;;;;;;;;;;;;;;7.94;41.74;100056.06;4962155;28;97815;-63
2021/12/27 02:28:00;;;;;;;;;;;;;;;7.96;41.66;100055.81;4960404;28;124334;-55
2021/12/27 02:30:26;;;;;;;;;;;;;;;7.96;41.74;100053.13;4960262;28;122909;-63
2021/12/27 02:32:56;;;;;;;;;;;;;;;7.96;41.66;100067.34;4961236;28;108664;-63
2021/12/27 02:35:30;;;;;;;;;;;;;;;7.97;41.69;100066.28;4962217;28;97841;-55
2021/12/27 02:37:58;;;;;;;;;;;;;;;7.97;41.91;100070.84;4961162;28;98477;-63
2021/12/27 02:40:25;;;;;;;;;;;;;;;7.99;41.75;100071.41;4975420;28;98498;-56
2021/12/27 02:43:07;;;;;;;;;;;;;;;8.00;41.63;100073.81;4960660;28;98022;-63
2021/12/27 02:45:38;;;;;;;;;;;;;;;8.02;41.64;100055.59;4978879;28;97811;-56
2021/12/27 02:48:05;;;;;;;;;;;;;;;8.03;41.62;100049.13;4981097;28;98442;-63
2021/12/27 02:50:31;;;;;;;;;;;;;;;8.04;41.84;100045.38;4977360;27;119214;-55
2021/12/27 02:53:00;;;;;;;;;;;;;;;8.05;41.92;100044.31;4961052;28;98308;-63
2021/12/27 02:55:26;;;;;;;;;;;;;;;8.06;41.94;100040.56;4962844;28;97823;-56
2021/12/27 02:57:52;;;;;;;;;;;;;;;8.07;41.62;100038.69;4960999;28;108921;-63
2021/12/27 03:00:23;;;;;;;;;;;;;;;8.10;42.13;100032.81;4959659;28;126807;-56
2021/12/27 03:02:49;;;;;;;;;;;;;;;8.10;41.80;100035.50;4959907;28;97957;-55
2021/12/27 03:05:19;;;;;;;;;;;;;;;8.11;41.71;100034.41;4963966;28;97830;-55
2021/12/27 03:07:46;;;;;;;;;;;;;;;8.12;42.19;100036.81;4980484;28;98257;-63
2021/12/27 03:10:13;;;;;;;;;;;;;;;8.14;41.96;100028.53;4980241;27;98351;-63
2021/12/27 03:12:39;;;;;;;;;;;;;;;8.14;42.05;100025.03;4968528;28;113705;-56
2021/12/27 03:15:06;;;;;;;;;;;;;;;8.15;42.17;100022.09;4961424;28;97852;-63
2021/12/27 03:17:33;;;;;;;;;;;;;;;8.16;41.92;100022.88;4961192;28;98082;-57
2021/12/27 03:19:59;;;;;;;;;;;;;;;8.17;41.91;100019.13;4974236;28;115637;-63
2021/12/27 03:22:24;;;;;;;;;;;;;;;8.18;41.90;100020.75;4959671;28;125420;-56
2021/12/27 03:24:50;;;;;;;;;;;;;;;8.18;41.66;100018.06;4963651;28;117670;-63
2021/12/27 03:27:16;;;;;;;;;;;;;;;8.19;41.97;100012.44;4977971;28;128789;-55
2021/12/27 03:29:42;;;;;;;;;;;;;;;8.21;42.18;100014.84;4963501;28;114378;-56
2021/12/27 03:32:08;;;;;;;;;;;;;;;8.21;42.05;100012.97;4959044;28;128999;-55
2021/12/27 03:34:41;;;;;;;;;;;;;;;8.21;41.96;99998.72;4959461;28;115585;-56
2021/12/27 03:37:08;;;;;;;;;;;;;;;8.23;41.98;99991.25;4975991;28;98079;-63
2021/12/27 03:39:34;;;;;;;;;;;;;;;8.23;42.25;99991.25;4976840;28;122769;-56
2021/12/27 03:42:00;;;;;;;;;;;;;;;8.24;41.93;99988.28;4959336;28;128199;-55
2021/12/27 03:44:25;;;;;;;;;;;;;;;8.25;42.21;99995.28;4959852;28;116837;-63
2021/12/27 03:46:51;;;;;;;;;;;;;;;8.24;42.09;99982.91;4959569;28;128942;-63
2021/12/27 03:49:17;;;;;;;;;;;;;;;8.26;42.45;99972.72;4976945;27;128768;-54
2021/12/27 03:51:43;;;;;;;;;;;;;;;8.27;42.15;99976.22;4976611;28;127578;-54
2021/12/27 03:54:10;;;;;;;;;;;;;;;8.27;42.16;99977.00;4959975;28;98011;-55
2021/12/27 03:56:36;;;;;;;;;;;;;;;8.28;41.94;99973.25;4959991;28;98454;-62
2021/12/27 03:59:23;;;;;;;;;;;;;;;8.30;42.15;99973.81;4959326;28;98105;-56
2021/12/27 04:01:49;;;;;;;;;;;;;;;8.30;42.56;99968.44;4959879;28;98132;-56
2021/12/27 04:04:15;;;;;;;;;;;;;;;8.31;41.94;99971.94;4960760;28;98644;-63
2021/12/27 04:06:41;;;;;;;;;;;;;;;8.31;42.16;99967.34;4959722;28;128845;-63
2021/12/27 04:09:07;;;;;;;;;;;;;;;8.32;42.59;99968.16;4972780;27;128681;-56
2021/12/27 04:11:33;;;;;;;;;;;;;;;8.33;42.49;99970.59;4960122;28;98593;-63
2021/12/27 04:13:59;;;;;;;;;;;;;;;8.34;42.39;99969.53;4961256;28;113587;-63
2021/12/27 04:16:25;;;;;;;;;;;;;;;8.35;42.27;99965.75;4964476;28;99076;-55
2021/12/27 04:18:51;;;;;;;;;;;;;;;8.35;42.50;99965.75;4962163;28;129010;-55
2021/12/27 04:21:17;;;;;;;;;;;;;;;8.36;42.39;99961.19;4963524;28;98106;-63
2021/12/27 04:23:43;;;;;;;;;;;;;;;8.38;42.12;99961.78;4963029;28;118576;-56
2021/12/27 04:26:09;;;;;;;;;;;;;;;8.39;42.35;99959.91;4962457;28;126110;-63
2021/12/27 04:28:35;;;;;;;;;;;;;;;8.39;42.13;99963.38;4994651;27;111318;-63
2021/12/27 04:31:01;;;;;;;;;;;;;;;8.41;42.50;99963.09;4976533;28;97753;-63
2021/12/27 04:33:27;;;;;;;;;;;;;;;8.40;42.24;99967.69;4982171;27;117378;-56
2021/12/27 04:35:53;;;;;;;;;;;;;;;8.42;42.35;99959.38;4976716;28;128253;-56
2021/12/27 04:38:19;;;;;;;;;;;;;;;8.42;41.97;99954.00;4963249;28;98724;-56
2021/12/27 04:40:46;;;;;;;;;;;;;;;8.42;42.19;99954.00;4962455;28;106699;-63
2021/12/27 04:43:14;;;;;;;;;;;;;;;8.44;42.26;99949.97;4962036;28;111106;-63
2021/12/27 04:45:41;;;;;;;;;;;;;;;8.44;42.55;99958.03;4964168;28;120695;-55
2021/12/27 04:48:07;;;;;;;;;;;;;;;8.45;42.57;99958.81;4980363;27;99176;-55
2021/12/27 04:50:33;;;;;;;;;;;;;;;8.46;42.20;99961.25;4960717;28;98384;-63
2021/12/27 04:52:59;;;;;;;;;;;;;;;8.47;42.43;99959.38;4963347;28;98010;-54
2021/12/27 04:55:25;;;;;;;;;;;;;;;8.48;42.68;99951.03;4963415;28;98058;-56
2021/12/27 04:57:51;;;;;;;;;;;;;;;8.49;42.44;99949.16;4962663;28;98289;-62
2021/12/27 05:00:17;;;;;;;;;;;;;;;8.49;42.20;99946.47;4962520;28;98439;-56
2021/12/27 05:02:43;;;;;;;;;;;;;;;8.50;42.84;99954.28;4962884;28;104731;-63
2021/12/27 05:05:09;;;;;;;;;;;;;;;8.51;42.65;99947.84;4976423;27;128995;-63
2021/12/27 05:07:35;;;;;;;;;;;;;;;8.52;42.52;99946.75;4981257;27;128680;-63
2021/12/27 05:10:01;;;;;;;;;;;;;;;8.51;42.49;99950.50;4980318;27;98024;-63
2021/12/27 05:12:27;;;;;;;;;;;;;;;8.53;42.92;99951.06;4983311;27;98152;-55
2021/12/27 05:14:53;;;;;;;;;;;;;;;8.55;42.45;99953.47;4977778;28;126984;-55
2021/12/27 05:17:19;;;;;;;;;;;;;;;8.56;42.98;99949.72;4962114;28;98613;-55
2021/12/27 05:19:45;;;;;;;;;;;;;;;8.55;42.55;99945.41;4961467;28;126809;-54
2021/12/27 05:22:11;;;;;;;;;;;;;;;8.58;42.78;99942.22;4961876;28;117947;-55
2021/12/27 05:24:37;;;;;;;;;;;;;;;8.59;42.64;99946.50;4961468;28;108310;-56
2021/12/27 05:27:03;;;;;;;;;;;;;;;8.60;42.61;99948.09;4992262;27;126814;-56
2021/12/27 05:29:29;;;;;;;;;;;;;;;8.60;43.16;99940.84;4962013;28;113725;-63
2021/12/27 05:32:01;;;;;;;;;;;;;;;8.62;43.09;99940.59;4967986;28;98045;-62
2021/12/27 05:34:28;;;;;;;;;;;;;;;8.63;42.69;99944.09;4979206;27;98542;-63
2021/12/27 05:36:53;;;;;;;;;;;;;;;8.63;42.64;99944.91;4980120;28;99019;-63
2021/12/27 05:39:20;;;;;;;;;;;;;;;8.64;42.75;99949.19;4981461;27;118617;-55
2021/12/27 05:41:46;;;;;;;;;;;;;;;8.65;42.65;99941.97;4982582;27;98522;-55
2021/12/27 05:44:13;;;;;;;;;;;;;;;8.66;42.71;99946.25;4969553;28;98659;-55
2021/12/27 05:46:39;;;;;;;;;;;;;;;8.67;43.24;99937.09;4962340;28;98241;-56
2021/12/27 05:49:04;;;;;;;;;;;;;;;8.67;42.84;99931.75;4961680;28;100413;-63
2021/12/27 05:51:30;;;;;;;;;;;;;;;8.67;42.87;99929.84;4962718;28;117794;-63
2021/12/27 05:53:56;;;;;;;;;;;;;;;8.69;42.80;99929.59;4960311;28;128191;-56
2021/12/27 05:56:22;;;;;;;;;;;;;;;8.69;43.03;99927.72;4961122;28;128090;-55
2021/12/27 05:58:48;;;;;;;;;;;;;;;8.70;43.09;99933.91;4975275;27;116578;-56
2021/12/27 06:01:14;;;;;;;;;;;;;;;8.71;42.63;99930.94;4980581;27;97903;-63
2021/12/27 06:03:40;;;;;;;;;;;;;;;8.71;43.24;99935.50;4981334;27;104173;-56
2021/12/27 06:06:07;;;;;;;;;;;;;;;8.72;43.23;99929.84;4980322;28;129278;-56
2021/12/27 06:08:33;;;;;;;;;;;;;;;8.73;43.42;99930.69;4978940;27;98520;-56
2021/12/27 06:10:59;;;;;;;;;;;;;;;8.72;43.14;99921.78;4978641;27;111952;-56
2021/12/27 06:13:25;;;;;;;;;;;;;;;8.74;43.40;99925.03;4980019;27;129176;-56
2021/12/27 06:15:51;;;;;;;;;;;;;;;8.75;43.13;99931.19;4979867;28;126695;-56
2021/12/27 06:18:16;;;;;;;;;;;;;;;8.75;43.31;99925.81;4979408;28;127103;-56
2021/12/27 06:20:42;;;;;;;;;;;;;;;8.75;43.38;99929.31;4968354;28;118178;-56
2021/12/27 06:23:08;;;;;;;;;;;;;;;8.77;42.94;99932.56;4959211;28;128796;-55
2021/12/27 06:25:34;;;;;;;;;;;;;;;8.77;43.33;99937.94;4959889;28;125857;-55
2021/12/27 06:28:00;;;;;;;;;;;;;;;8.78;43.34;99933.38;4967888;28;98599;-55
2021/12/27 06:30:26;;;;;;;;;;;;;;;8.79;43.09;99943.03;4973173;27;116882;-56
2021/12/27 06:32:52;;;;;;;;;;;;;;;8.80;43.02;99945.47;4975745;28;99121;-55
2021/12/27 06:35:18;;;;;;;;;;;;;;;8.81;42.98;99938.22;5009504;27;127405;-56
2021/12/27 06:37:45;;;;;;;;;;;;;;;8.82;43.28;99937.13;4980629;27;97984;-56
2021/12/27 06:40:12;;;;;;;;;;;;;;;8.83;43.04;99936.84;4978757;27;98010;-56
2021/12/27 06:42:38;;;;;;;;;;;;;;;8.84;43.64;99937.66;4980721;27;98643;-56
2021/12/27 06:45:04;;;;;;;;;;;;;;;8.86;43.59;99935.50;4974095;27;116824;-56
2021/12/27 06:47:30;;;;;;;;;;;;;;;8.87;43.40;99931.75;4959673;28;119516;-57
2021/12/27 06:49:56;;;;;;;;;;;;;;;8.87;43.41;99939.81;4959868;28;118480;-56
2021/12/27 06:52:23;;;;;;;;;;;;;;;8.88;43.37;99941.41;4960076;28;109842;-56
2021/12/27 06:54:49;;;;;;;;;;;;;;;8.88;43.37;99930.66;4970381;27;97899;-55
2021/12/27 06:57:17;;;;;;;;;;;;;;;8.89;43.56;99937.66;4960235;28;98397;-56
2021/12/27 06:59:43;;;;;;;;;;;;;;;8.90;43.09;99931.22;4956706;28;98054;-56
2021/12/27 07:02:09;;;;;;;;;;;;;;;8.91;43.33;99929.31;4955139;28;128123;-55
2021/12/27 07:04:35;;;;;;;;;;;;;;;8.91;43.20;99935.50;4961591;28;98590;-55
2021/12/27 07:07:01;;;;;;;;;;;;;;;8.93;43.16;99924.50;4956145;28;127387;-56
2021/12/27 07:09:27;;;;;;;;;;;;;;;8.93;42.91;99922.63;4955025;28;111963;-56
2021/12/27 07:11:53;;;;;;;;;;;;;;;8.94;43.10;99929.59;4956691;28;128737;-56
2021/12/27 07:14:19;;;;;;;;;;;;;;;8.94;43.41;99929.59;4955280;28;98653;-63
2021/12/27 07:16:44;;;;;;;;;;;;;;;8.96;43.34;99926.63;4964351;28;127462;-63
2021/12/27 07:19:10;;;;;;;;;;;;;;;8.96;43.82;99924.78;4954468;28;116839;-55
2021/12/27 07:21:36;;;;;;;;;;;;;;;8.96;43.14;99922.09;4956183;28;127766;-56
2021/12/27 07:24:03;;;;;;;;;;;;;;;8.97;43.54;99929.06;4956330;28;128678;-56
2021/12/27 07:26:29;;;;;;;;;;;;;;;8.99;43.05;99926.91;4954614;28;121614;-56
2021/12/27 07:28:54;;;;;;;;;;;;;;;9.01;43.91;99932.03;4955577;28;117051;-56
2021/12/27 07:31:21;;;;;;;;;;;;;;;9.02;43.51;99923.69;4940026;28;98610;-56
2021/12/27 07:33:46;;;;;;;;;;;;;;;9.05;43.90;99931.22;4955782;28;121502;-63
2021/12/27 07:36:12;;;;;;;;;;;;;;;9.07;43.75;99925.56;4916622;28;103699;-56
2021/12/27 07:38:38;;;;;;;;;;;;;;;9.09;43.40;99921.53;4917987;28;98266;-63
2021/12/27 07:41:04;;;;;;;;;;;;;;;9.10;43.52;99916.94;4917069;28;121103;-57
2021/12/27 07:43:30;;;;;;;;;;;;;;;9.12;43.58;99913.97;4917057;28;99339;-56
2021/12/27 07:45:56;;;;;;;;;;;;;;;9.13;43.78;99912.94;4917015;28;121916;-63
2021/12/27 07:48:22;;;;;;;;;;;;;;;9.13;43.43;99911.03;4918461;28;98107;-56
2021/12/27 07:50:48;;;;;;;;;;;;;;;9.15;43.36;99908.06;4919441;28;129163;-63
2021/12/27 07:53:14;;;;;;;;;;;;;;;9.17;43.73;99908.63;4919018;28;128169;-63
2021/12/27 07:55:40;;;;;;;;;;;;;;;9.18;43.79;99902.97;4920335;28;127584;-54
2021/12/27 07:58:06;;;;;;;;;;;;;;;9.19;44.12;99903.75;4921353;28;117774;-57
2021/12/27 08:00:32;;;;;;;;;;;;;;;9.20;43.93;99903.50;4918451;28;128067;-56
2021/12/27 08:02:58;;;;;;;;;;;;;;;9.23;43.72;99902.94;4919661;28;127778;-63
2021/12/27 08:05:23;;;;;;;;;;;;;;;9.25;43.06;99898.09;4919876;28;128921;-63
2021/12/27 08:07:49;;;;;;;;;;;;;;;9.29;43.44;99906.44;4920134;28;116699;-63
2021/12/27 08:10:15;;;;;;;;;;;;;;;9.35;43.10;99905.34;4919929;28;120212;-63
2021/12/27 08:12:41;;;;;;;;;;;;;;;9.43;43.19;99903.97;4921385;28;98784;-63
2021/12/27 08:15:08;;;;;;;;;;;;;;;9.52;43.03;99900.47;4918971;28;127647;-64
2021/12/27 08:17:34;;;;;;;;;;;;;;;9.63;42.87;99903.09;4920648;28;107863;-63
2021/12/27 08:20:00;;;;;;;;;;;;;;;9.69;43.24;99900.13;4919550;28;120487;-63
2021/12/27 08:22:26;;;;;;;;;;;;;;;9.74;43.52;99900.09;4919659;28;125925;-63
2021/12/27 08:24:52;;;;;;;;;;;;;;;9.80;43.07;99896.31;4919373;28;127299;-64
2021/12/27 08:27:21;;;;;;;;;;;;;;;9.88;43.07;99894.16;4920294;28;120100;-63
2021/12/27 08:29:47;;;;;;;;;;;;;;;9.91;43.25;99891.72;4919221;28;119236;-63
2021/12/27 08:32:13;;;;;;;;;;;;;;;9.97;42.92;99892.47;4920429;28;98014;-63
2021/12/27 08:34:39;;;;;;;;;;;;;;;10.01;43.53;99882.75;4933227;28;113948;-63
2021/12/27 08:37:05;;;;;;;;;;;;;;;10.07;42.88;99892.44;4959313;28;117566;-64
2021/12/27 08:39:31;;;;;;;;;;;;;;;10.12;42.95;99886.22;4960019;28;99112;-63
2021/12/27 08:41:57;;;;;;;;;;;;;;;10.17;43.25;99888.88;4959023;28;109171;-64
2021/12/27 08:44:23;;;;;;;;;;;;;;;10.22;42.90;99892.34;4959408;28;128815;-64
2021/12/27 08:46:49;;;;;;;;;;;;;;;10.26;43.24;99890.75;4960214;28;97993;-63
2021/12/27 08:49:15;;;;;;;;;;;;;;;10.30;43.28;99883.72;4961548;28;126960;-63
2021/12/27 08:51:41;;;;;;;;;;;;;;;10.34;43.03;99883.16;4958822;28;128062;-63
2021/12/27 08:54:07;;;;;;;;;;;;;;;10.37;43.72;99882.59;4958799;28;98539;-63
2021/12/27 08:56:34;;;;;;;;;;;;;;;10.38;43.39;99889.59;4960354;28;97979;-63
2021/12/27 08:59:00;;;;;;;;;;;;;;;10.39;42.82;99888.50;4958896;28;99249;-63
2021/12/27 09:01:26;;;;;;;;;;;;;;;10.41;43.58;99887.13;4958235;28;98552;-64
2021/12/27 09:03:52;;;;;;;;;;;;;;;10.43;43.28;99887.66;4958994;28;97890;-63
2021/12/27 09:06:18;;;;;;;;;;;;;;;10.45;43.25;99890.91;4958436;28;117682;-63
2021/12/27 09:08:44;;;;;;;;;;;;;;;10.47;43.68;99896.00;4959864;28;101357;-64
2021/12/27 09:11:10;;;;;;;;;;;;;;;10.50;43.58;99881.97;4965071;28;98579;-63
2021/12/27 09:13:37;;;;;;;;;;;;;;;10.52;43.89;99883.28;4957466;28;120190;-63
2021/12/27 09:16:03;;;;;;;;;;;;;;;10.55;43.78;99874.63;4959852;28;97819;-63
2021/12/27 09:18:31;;;;;;;;;;;;;;;10.65;43.01;99881.03;4958024;28;98933;-63
2021/12/27 09:20:57;;;;;;;;;;;;;;;10.72;43.63;99879.63;4959546;28;99114;-63
2021/12/27 09:23:23;;;;;;;;;;;;;;;10.78;43.64;99869.63;4964808;28;116536;-63
2021/12/27 09:25:48;;;;;;;;;;;;;;;10.81;43.29;99871.75;4960242;28;97978;-63
2021/12/27 09:28:15;;;;;;;;;;;;;;;10.85;43.76;99874.69;4958796;28;128963;-64
2021/12/27 09:30:41;;;;;;;;;;;;;;;10.86;43.68;99876.28;4963459;28;98880;-63
2021/12/27 09:33:07;;;;;;;;;;;;;;;10.91;43.83;99868.16;4958043;28;123668;-56
2021/12/27 09:35:33;;;;;;;;;;;;;;;10.95;43.60;99871.88;4958149;28;118977;-56
2021/12/27 09:37:58;;;;;;;;;;;;;;;10.99;43.53;99868.34;4960796;27;98777;-56
2021/12/27 09:40:25;;;;;;;;;;;;;;;11.03;43.47;99853.19;4956802;28;126760;-57
2021/12/27 09:42:51;;;;;;;;;;;;;;;11.10;43.46;99860.97;4957233;28;114507;-56
2021/12/27 09:45:17;;;;;;;;;;;;;;;11.13;43.70;99844.22;4958069;28;98159;-56
2021/12/27 09:47:44;;;;;;;;;;;;;;;11.18;43.42;99851.44;4957453;28;129680;-56
2021/12/27 09:50:11;;;;;;;;;;;;;;;11.19;43.75;99837.66;4957765;28;98504;-56
2021/12/27 09:52:38;;;;;;;;;;;;;;;11.23;43.65;99840.59;4957684;28;98480;-56
2021/12/27 09:55:04;;;;;;;;;;;;;;;11.27;43.33;99838.91;4982634;27;97986;-57
2021/12/27 09:57:33;;;;;;;;;;;;;;;11.31;43.51;99835.34;4958656;28;98234;-56
2021/12/27 09:59:59;;;;;;;;;;;;;;;11.39;43.70;99835.81;4958816;28;98975;-56
2021/12/27 10:02:26;;;;;;;;;;;;;;;11.46;43.79;99833.59;4957299;28;98885;-56
2021/12/27 10:04:53;;;;;;;;;;;;;;;11.53;43.58;99826.75;4958925;28;98247;-57
2021/12/27 10:07:23;;;;;;;;;;;;;;;11.62;43.83;99823.41;4963749;27;98267;-56
2021/12/27 10:09:53;;;;;;;;;;;;;;;11.66;43.82;99821.72;4955631;28;126188;-56
2021/12/27 10:12:22;;;;;;;;;;;;;;;11.68;43.47;99817.66;4957906;28;98472;-64
2021/12/27 10:14:58;;;;;;;;;;;;;;;11.70;43.69;99815.47;4959017;28;97928;-63
2021/12/27 10:17:24;;;;;;;;;;;;;;;11.70;43.69;99810.06;4971391;28;111268;-64
2021/12/27 10:19:53;;;;;;;;;;;;;;;11.68;44.15;99806.06;4956605;28;98867;-64
2021/12/27 10:22:20;;;;;;;;;;;;;;;11.64;44.09;99800.44;4956345;28;98384;-63
2021/12/27 10:24:48;;;;;;;;;;;;;;;11.61;43.91;99802.91;4964827;28;97890;-56
2021/12/27 10:27:14;;;;;;;;;;;;;;;11.57;44.49;99791.09;4957093;28;98461;-55
2021/12/27 10:29:40;;;;;;;;;;;;;;;11.54;44.44;99792.47;4958558;28;98819;-57
2021/12/27 10:32:08;;;;;;;;;;;;;;;11.52;44.47;99794.66;4957482;28;99289;-63
2021/12/27 10:34:44;;;;;;;;;;;;;;;11.49;44.30;99796.03;4956902;28;97913;-56
2021/12/27 10:37:22;;;;;;;;;;;;;;;11.47;44.56;99792.81;4956731;28;118865;-56
2021/12/27 10:40:08;;;;;;;;;;;;;;;11.48;44.76;99793.63;4957242;28;121748;-56
2021/12/27 10:42:43;;;;;;;;;;;;;;;11.49;44.74;99784.44;4957303;28;98196;-56
2021/12/27 10:45:13;;;;;;;;;;;;;;;11.50;44.43;99783.34;4953288;28;98003;-56
2021/12/27 10:47:44;;;;;;;;;;;;;;;11.50;44.57;99783.34;4957121;28;98699;-56
2021/12/27 10:50:14;;;;;;;;;;;;;;;11.49;44.51;99777.13;4959976;27;99154;-56
2021/12/27 10:52:41;;;;;;;;;;;;;;;11.52;44.75;99781.97;4957331;28;97863;-56
2021/12/27 10:55:07;;;;;;;;;;;;;;;11.57;44.77;99774.91;4958077;28;98141;-56
2021/12/27 10:57:33;;;;;;;;;;;;;;;11.63;44.67;99768.31;4957123;28;98999;-56
2021/12/27 11:00:28;;;;;;;;;;;;;;;11.75;44.55;99760.59;4957797;28;98936;-57
2021/12/27 11:02:54;;;;;;;;;;;;;;;11.89;44.35;99768.81;4962348;28;98600;-56
2021/12/27 11:05:23;;;;;;;;;;;;;;;12.02;43.99;99768.88;4957025;28;98133;-56
2021/12/27 11:08:00;;;;;;;;;;;;;;;12.09;43.99;99759.59;4956919;28;98685;-56
2021/12/27 11:10:27;;;;;;;;;;;;;;;12.08;44.56;99764.19;4956453;28;98519;-56
2021/12/27 11:12:53;;;;;;;;;;;;;;;12.07;44.24;99757.19;4955707;28;98229;-56
2021/12/27 11:15:19;;;;;;;;;;;;;;;12.04;44.52;99757.78;4956997;28;97785;-56
2021/12/27 11:17:45;;;;;;;;;;;;;;;12.00;44.62;99757.56;4955744;28;129525;-56
2021/12/27 11:20:12;;;;;;;;;;;;;;;11.98;44.88;99762.44;4954506;28;98592;-56
2021/12/27 11:22:39;;;;;;;;;;;;;;;11.99;44.59;99757.84;4958050;28;97879;-63
2021/12/27 11:25:07;;;;;;;;;;;;;;;12.05;44.83;99748.56;4961980;28;97896;-57
2021/12/27 11:27:34;;;;;;;;;;;;;;;12.11;44.45;99750.09;4959974;28;121838;-57
2021/12/27 11:30:09;;;;;;;;;;;;;;;12.15;44.64;99744.91;4964394;28;98625;-63
2021/12/27 11:32:35;;;;;;;;;;;;;;;12.19;44.94;99741.31;4961614;28;97795;-63
2021/12/27 11:35:09;;;;;;;;;;;;;;;12.21;44.96;99739.13;4960973;28;108417;-63
2021/12/27 11:37:39;;;;;;;;;;;;;;;12.21;44.72;99733.72;4960399;28;98339;-56
2021/12/27 11:40:06;;;;;;;;;;;;;;;12.23;44.79;99739.63;4962084;28;98659;-63
2021/12/27 11:42:54;;;;;;;;;;;;;;;12.21;44.92;99739.13;4959027;28;98460;-56
2021/12/27 11:45:53;;;;;;;;;;;;;;;12.21;45.00;99730.22;4956907;28;97851;-56
2021/12/27 11:48:26;;;;;;;;;;;;;;;12.20;45.12;99732.13;4946102;28;100933;-63
2021/12/27 11:51:06;;;;;;;;;;;;;;;12.19;44.91;99718.91;4953708;28;98248;-64
2021/12/27 11:53:35;;;;;;;;;;;;;;;12.17;44.77;99726.50;4957537;28;97975;-63
2021/12/27 11:56:02;;;;;;;;;;;;;;;12.15;45.40;99721.41;4961037;28;98534;-63
2021/12/27 11:58:35;;;;;;;;;;;;;;;12.13;44.93;99717.38;4959230;28;99136;-63
2021/12/27 12:01:02;;;;;;;;;;;;;;;12.15;45.25;99720.59;4960666;28;98393;-63
2021/12/27 12:03:40;;;;;;;;;;;;;;;12.17;45.16;99713.00;4960096;28;98887;-63
2021/12/27 12:06:06;;;;;;;;;;;;;;;12.21;45.24;99708.59;4961600;28;98182;-64
2021/12/27 12:08:38;;;;;;;;;;;;;;;12.19;45.11;99708.91;4959973;28;98968;-63
2021/12/27 12:11:06;;;;;;;;;;;;;;;12.14;45.35;99706.25;4963862;28;98609;-56
2021/12/27 12:13:41;;;;;;;;;;;;;;;12.11;45.35;99708.78;4952222;28;99513;-63
2021/12/27 12:16:09;;;;;;;;;;;;;;;12.06;45.51;99701.53;4960574;28;97806;-57
2021/12/27 12:18:39;;;;;;;;;;;;;;;12.03;45.28;99712.97;4959888;28;98508;-56
2021/12/27 12:21:05;;;;;;;;;;;;;;;11.99;45.50;99706.53;4960817;28;98366;-63
2021/12/27 12:23:35;;;;;;;;;;;;;;;11.96;45.57;99704.41;4957726;28;98502;-64
2021/12/27 12:26:02;;;;;;;;;;;;;;;11.94;45.39;99707.41;4960214;28;97913;-57
2021/12/27 12:28:28;;;;;;;;;;;;;;;11.94;45.83;99709.31;4960513;28;98373;-64
2021/12/27 12:30:54;;;;;;;;;;;;;;;11.91;45.45;99705.31;4960286;28;98976;-56
2021/12/27 12:33:25;;;;;;;;;;;;;;;11.89;45.43;99702.09;4959939;28;98084;-63
2021/12/27 12:35:58;;;;;;;;;;;;;;;11.86;45.67;99699.97;4959698;28;97855;-64
2021/12/27 12:38:36;;;;;;;;;;;;;;;11.84;45.59;99698.69;4960791;28;98700;-63
2021/12/27 12:41:05;;;;;;;;;;;;;;;11.80;45.72;99695.72;4959488;28;98068;-56
2021/12/27 12:43:53;;;;;;;;;;;;;;;11.76;45.68;99700.91;4960367;28;97808;-56
2021/12/27 12:46:27;;;;;;;;;;;;;;;11.75;45.82;99707.41;4959923;28;97722;-57
2021/12/27 12:48:56;;;;;;;;;;;;;;;11.72;45.93;99710.69;4959652;28;98284;-64